Terminal Aerodrome Forecast
Issued by NWS

Home | Current Version | Previous Version | Text Only | Print | Product List | Glossary On
Versions: 1 2 3 4 5 6 7 8 9 10 11 12 13 14 15 16
000
FTUS46 KLOX 092351
TAFBUR
TAF
KBUR 092351Z 1000/1024 16007KT P6SM SKC
     FM100300 VRB03KT P6SM SCT025 BKN040
     FM101000 VRB03KT 5SM -DZ BR BKN005 OVC016
     FM101600 VRB03KT P6SM SCT008 OVC020
     FM102100 17006KT P6SM BKN025 BKN050=

USA.gov is the U.S. government's official web portal to all federal, state and local government web resources and services.